createdAt,value
2018-05-07T00:01:02.967Z,101621
2018-05-07T00:03:31.232Z,101608
2018-05-07T00:05:59.670Z,101606
2018-05-07T00:08:27.779Z,101618
2018-05-07T00:10:56.099Z,101607
2018-05-07T00:13:24.217Z,101604
2018-05-07T00:15:52.431Z,101607
2018-05-07T00:18:20.844Z,101607
2018-05-07T00:20:49.014Z,101612
2018-05-07T00:23:17.364Z,101616
2018-05-07T00:25:45.497Z,101612
2018-05-07T00:28:14.161Z,101602
2018-05-07T00:30:42.414Z,101606
2018-05-07T00:33:11.627Z,101596
2018-05-07T00:35:39.871Z,101598
2018-05-07T00:38:08.465Z,101608
2018-05-07T00:40:36.884Z,101615
2018-05-07T00:43:05.054Z,101608
2018-05-07T00:45:33.180Z,101614
2018-05-07T00:48:01.455Z,101617
2018-05-07T00:50:29.774Z,101608
2018-05-07T00:52:58.215Z,101615
2018-05-07T00:55:26.552Z,101615
2018-05-07T00:57:54.707Z,101609
2018-05-07T01:00:23.036Z,101618
2018-05-07T01:02:51.133Z,101617
2018-05-07T01:05:19.435Z,101607
2018-05-07T01:07:47.682Z,101619
2018-05-07T01:10:15.949Z,101607
2018-05-07T01:12:44.325Z,101609
2018-05-07T01:15:12.667Z,101607
2018-05-07T01:17:40.980Z,101607
2018-05-07T01:20:09.311Z,101615
2018-05-07T01:22:37.552Z,101621
2018-05-07T01:25:05.915Z,101617
2018-05-07T01:27:34.103Z,101615
2018-05-07T01:30:02.367Z,101617
2018-05-07T01:32:30.495Z,101621
2018-05-07T01:34:58.734Z,101606
2018-05-07T01:37:26.878Z,101627
2018-05-07T01:39:55.248Z,101628
2018-05-07T01:42:23.368Z,101629
2018-05-07T01:44:51.653Z,101631
2018-05-07T01:47:20.016Z,101625
2018-05-07T01:49:48.173Z,101630
2018-05-07T01:52:16.526Z,101623
2018-05-07T01:54:44.700Z,101622
2018-05-07T01:57:12.974Z,101614
2018-05-07T01:59:41.224Z,101618
2018-05-07T02:02:09.367Z,101614
2018-05-07T02:04:37.518Z,101624
2018-05-07T02:07:05.670Z,101613
2018-05-07T02:09:34.230Z,101619
2018-05-07T02:12:02.631Z,101618
2018-05-07T02:14:30.753Z,101617
2018-05-07T02:16:58.922Z,101619
2018-05-07T02:19:27.096Z,101613
2018-05-07T02:21:55.911Z,101617
2018-05-07T02:24:24.015Z,101619
2018-05-07T02:26:52.597Z,101596
2018-05-07T02:29:20.723Z,101601
2018-05-07T02:31:49.068Z,101606
2018-05-07T02:34:17.189Z,101616
2018-05-07T02:36:45.655Z,101608
2018-05-07T02:39:14.189Z,101616
2018-05-07T02:41:42.555Z,101605
2018-05-07T02:44:10.933Z,101597
2018-05-07T02:46:39.096Z,101605
2018-05-07T02:49:07.242Z,101608
2018-05-07T02:51:35.329Z,101596
2018-05-07T02:54:03.725Z,101593
2018-05-07T02:56:31.812Z,101597
2018-05-07T02:59:00.145Z,101592
2018-05-07T03:01:28.270Z,101593
2018-05-07T03:03:56.653Z,101584
2018-05-07T03:06:24.718Z,101580
2018-05-07T03:08:53.101Z,101582
2018-05-07T03:11:21.457Z,101582
2018-05-07T03:13:49.573Z,101580
2018-05-07T03:16:17.910Z,101579
2018-05-07T03:18:46.288Z,101584
2018-05-07T03:21:14.617Z,101593
2018-05-07T03:23:42.728Z,101576
2018-05-07T03:26:10.830Z,101584
2018-05-07T03:28:39.161Z,101575
2018-05-07T03:31:07.490Z,101577
2018-05-07T03:33:35.572Z,101571
2018-05-07T03:36:03.664Z,101568
2018-05-07T03:38:32.369Z,101571
2018-05-07T03:41:00.772Z,101571
2018-05-07T03:43:29.197Z,101569
2018-05-07T03:45:57.518Z,101570
2018-05-07T03:48:25.826Z,101565
2018-05-07T03:50:53.944Z,101576
2018-05-07T03:53:22.575Z,101576
2018-05-07T03:55:51.405Z,101573
2018-05-07T03:58:19.630Z,101563
2018-05-07T04:00:47.879Z,101563
2018-05-07T04:03:16.540Z,101563
2018-05-07T04:05:45.821Z,101562
2018-05-07T04:08:14.125Z,101560
2018-05-07T04:10:42.530Z,101567
2018-05-07T04:13:11.338Z,101566
2018-05-07T04:15:40.211Z,101562
2018-05-07T04:18:20.286Z,101556
2018-05-07T04:21:00.673Z,101560
2018-05-07T04:23:41.344Z,101562
2018-05-07T04:26:10.076Z,101557
2018-05-07T04:28:38.719Z,101555
2018-05-07T04:31:07.353Z,101555
2018-05-07T04:33:35.526Z,101561
2018-05-07T04:36:04.050Z,101556
2018-05-07T04:38:32.715Z,101560
2018-05-07T04:41:01.306Z,101550
2018-05-07T04:43:29.649Z,101555
2018-05-07T04:45:58.015Z,101557
2018-05-07T04:48:26.349Z,101555
2018-05-07T04:50:54.557Z,101558
2018-05-07T04:53:22.769Z,101560
2018-05-07T04:55:51.265Z,101560
2018-05-07T04:58:19.740Z,101558
2018-05-07T05:00:48.598Z,101561
2018-05-07T05:03:17.777Z,101561
2018-05-07T05:05:46.221Z,101565
2018-05-07T05:08:14.582Z,101557
2018-05-07T05:10:43.172Z,101570
2018-05-07T05:13:11.891Z,101568
2018-05-07T05:15:40.711Z,101579
2018-05-07T05:18:09.646Z,101575
2018-05-07T05:20:38.374Z,101577
2018-05-07T05:23:07.137Z,101566
2018-05-07T05:25:35.744Z,101568
2018-05-07T05:28:04.182Z,101569
2018-05-07T05:30:33.135Z,101572
2018-05-07T05:33:02.199Z,101575
2018-05-07T05:35:30.650Z,101574
2018-05-07T05:37:59.603Z,101573
2018-05-07T05:40:28.500Z,101569
2018-05-07T05:42:56.927Z,101558
2018-05-07T05:45:25.834Z,101556
2018-05-07T05:47:54.410Z,101557
2018-05-07T05:50:22.803Z,101565
2018-05-07T05:52:51.335Z,101565
2018-05-07T05:55:20.417Z,101574
2018-05-07T05:57:48.981Z,101569
2018-05-07T06:00:17.627Z,101574
2018-05-07T06:02:46.178Z,101571
2018-05-07T06:05:14.482Z,101563
2018-05-07T06:07:43.144Z,101561
2018-05-07T06:10:11.484Z,101574
2018-05-07T06:12:40.347Z,101565
2018-05-07T06:15:08.699Z,101567
2018-05-07T06:17:37.222Z,101564
2018-05-07T06:20:05.452Z,101566
2018-05-07T06:22:33.966Z,101564
2018-05-07T06:25:02.308Z,101561
2018-05-07T06:27:30.983Z,101557
2018-05-07T06:29:59.500Z,101562
2018-05-07T06:32:28.737Z,101565
2018-05-07T06:34:57.889Z,101559
2018-05-07T06:37:26.448Z,101556
2018-05-07T06:39:55.225Z,101564
2018-05-07T06:42:23.824Z,101555
2018-05-07T06:44:52.205Z,101553
2018-05-07T06:47:20.604Z,101554
2018-05-07T06:49:49.841Z,101553
2018-05-07T06:52:18.140Z,101550
2018-05-07T06:54:46.903Z,101548
2018-05-07T06:57:15.598Z,101556
2018-05-07T06:59:43.873Z,101558
2018-05-07T07:02:12.161Z,101551
2018-05-07T07:04:40.730Z,101539
2018-05-07T07:07:09.228Z,101545
2018-05-07T07:09:37.798Z,101548
2018-05-07T07:12:06.193Z,101545
2018-05-07T07:14:34.610Z,101535
2018-05-07T07:17:03.328Z,101536
2018-05-07T07:19:31.726Z,101548
2018-05-07T07:22:00.608Z,101545
2018-05-07T07:24:29.035Z,101535
2018-05-07T07:26:57.796Z,101538
2018-05-07T07:29:26.352Z,101537
2018-05-07T07:31:54.742Z,101546
2018-05-07T07:34:23.114Z,101543
2018-05-07T07:36:51.467Z,101536
2018-05-07T07:39:20.355Z,101545
2018-05-07T07:41:48.824Z,101541
2018-05-07T07:44:17.237Z,101550
2018-05-07T07:46:45.941Z,101540
2018-05-07T07:49:14.485Z,101544
2018-05-07T07:51:43.011Z,101541
2018-05-07T07:54:11.342Z,101542
2018-05-07T07:56:39.864Z,101537
2018-05-07T07:59:08.137Z,101551
2018-05-07T08:01:36.588Z,101530
2018-05-07T08:04:05.110Z,101541
2018-05-07T08:06:33.522Z,101536
2018-05-07T08:09:01.986Z,101529
2018-05-07T08:11:30.566Z,101525
2018-05-07T08:13:58.997Z,101512
2018-05-07T08:16:27.310Z,101519
2018-05-07T08:18:55.456Z,101509
2018-05-07T08:21:23.581Z,101518
2018-05-07T08:23:51.969Z,101515
2018-05-07T08:26:20.798Z,101518
2018-05-07T08:28:49.280Z,101517
2018-05-07T08:31:17.596Z,101515
2018-05-07T08:33:45.969Z,101514
2018-05-07T08:36:14.732Z,101515
2018-05-07T08:38:42.999Z,101516
2018-05-07T08:41:11.317Z,101513
2018-05-07T08:43:40.341Z,101511
2018-05-07T08:46:09.001Z,101511
2018-05-07T08:48:37.229Z,101511
2018-05-07T08:51:05.831Z,101514
2018-05-07T08:53:34.326Z,101518
2018-05-07T08:56:02.965Z,101505
2018-05-07T08:58:31.656Z,101504
2018-05-07T09:01:00.231Z,101505
2018-05-07T09:03:28.533Z,101499
2018-05-07T09:05:56.670Z,101499
2018-05-07T09:08:25.777Z,101489
2018-05-07T09:10:54.217Z,101495
2018-05-07T09:13:23.031Z,101494
2018-05-07T09:15:51.210Z,101496
2018-05-07T09:18:19.710Z,101486
2018-05-07T09:20:48.057Z,101484
2018-05-07T09:23:16.700Z,101485
2018-05-07T09:25:45.215Z,101488
2018-05-07T09:28:13.368Z,101484
2018-05-07T09:30:41.764Z,101480
2018-05-07T09:33:10.373Z,101483
2018-05-07T09:35:39.616Z,101483
2018-05-07T09:38:08.109Z,101476
2018-05-07T09:40:36.806Z,101475
2018-05-07T09:43:05.592Z,101475
2018-05-07T09:45:33.985Z,101468
2018-05-07T09:48:02.303Z,101473
2018-05-07T09:50:30.856Z,101464
2018-05-07T09:52:59.686Z,101465
2018-05-07T09:55:28.035Z,101468
2018-05-07T09:58:01.984Z,101462
2018-05-07T10:00:38.001Z,101460
2018-05-07T10:03:06.545Z,101456
2018-05-07T10:05:35.810Z,101464
2018-05-07T10:08:04.077Z,101459
2018-05-07T10:10:32.230Z,101457
2018-05-07T10:13:00.590Z,101447
2018-05-07T10:15:29.155Z,101454
2018-05-07T10:17:57.363Z,101444
2018-05-07T10:20:25.682Z,101435
2018-05-07T10:22:54.019Z,101436
2018-05-07T10:25:22.644Z,101432
2018-05-07T10:27:50.938Z,101424
2018-05-07T10:30:19.042Z,101426
2018-05-07T10:32:47.853Z,101425
2018-05-07T10:35:16.511Z,101436
2018-05-07T10:37:45.095Z,101420
2018-05-07T10:40:14.605Z,101425
2018-05-07T10:42:43.232Z,101417
2018-05-07T10:45:11.514Z,101426
2018-05-07T10:47:40.131Z,101426
2018-05-07T10:50:08.418Z,101417
2018-05-07T10:52:36.652Z,101420
2018-05-07T10:55:05.238Z,101423
2018-05-07T10:57:34.056Z,101413
2018-05-07T11:00:02.700Z,101401
2018-05-07T11:02:31.116Z,101417
2018-05-07T11:04:59.549Z,101422
2018-05-07T11:07:28.285Z,101403
2018-05-07T11:09:56.568Z,101399
2018-05-07T11:12:24.942Z,101402
2018-05-07T11:14:53.031Z,101388
2018-05-07T11:17:21.260Z,101390
2018-05-07T11:19:49.817Z,101387
2018-05-07T11:22:18.175Z,101388
2018-05-07T11:24:46.358Z,101385
2018-05-07T11:27:14.664Z,101384
2018-05-07T11:29:43.069Z,101382
2018-05-07T11:32:11.159Z,101382
2018-05-07T11:34:39.529Z,101381
2018-05-07T11:37:08.658Z,101379
2018-05-07T11:39:37.169Z,101384
2018-05-07T11:42:05.501Z,101383
2018-05-07T11:44:33.634Z,101385
2018-05-07T11:47:02.042Z,101375
2018-05-07T11:49:30.803Z,101373
2018-05-07T11:51:59.018Z,101372
2018-05-07T11:54:27.459Z,101374
2018-05-07T11:56:55.627Z,101365
2018-05-07T11:59:24.049Z,101364
2018-05-07T12:01:52.257Z,101362
2018-05-07T12:04:20.666Z,101363
2018-05-07T12:06:49.205Z,101363
2018-05-07T12:09:17.822Z,101352
2018-05-07T12:11:46.324Z,101357
2018-05-07T12:14:14.767Z,101362
2018-05-07T12:16:43.394Z,101351
2018-05-07T12:19:12.140Z,101351
2018-05-07T12:21:40.402Z,101357
2018-05-07T12:24:09.160Z,101345
2018-05-07T12:26:37.973Z,101355
2018-05-07T12:29:06.311Z,101361
2018-05-07T12:31:34.669Z,101355
2018-05-07T12:34:03.048Z,101344
2018-05-07T12:36:31.533Z,101348
2018-05-07T12:38:59.767Z,101337
2018-05-07T12:41:28.836Z,101339
2018-05-07T12:43:57.108Z,101339
2018-05-07T12:46:25.436Z,101338
2018-05-07T12:48:53.622Z,101333
2018-05-07T12:51:21.876Z,101335
2018-05-07T12:53:50.111Z,101329
2018-05-07T12:56:18.280Z,101333
2018-05-07T12:58:46.501Z,101318
2018-05-07T13:01:14.652Z,101320
2018-05-07T13:03:42.922Z,101324
2018-05-07T13:06:11.067Z,101327
2018-05-07T13:08:39.464Z,101319
2018-05-07T13:11:07.932Z,101326
2018-05-07T13:13:36.102Z,101325
2018-05-07T13:16:04.258Z,101309
2018-05-07T13:18:32.628Z,101314
2018-05-07T13:21:00.807Z,101318
2018-05-07T13:23:28.917Z,101309
2018-05-07T13:25:57.075Z,101304
2018-05-07T13:28:25.385Z,101305
2018-05-07T13:30:53.658Z,101290
2018-05-07T13:33:22.221Z,101289
2018-05-07T13:35:50.791Z,101293
2018-05-07T13:38:19.071Z,101275
2018-05-07T13:40:47.251Z,101273
2018-05-07T13:43:15.581Z,101281
2018-05-07T13:45:43.790Z,101272
2018-05-07T13:48:12.028Z,101263
2018-05-07T13:50:40.332Z,101258
2018-05-07T13:53:08.578Z,101268
2018-05-07T13:55:36.891Z,101261
2018-05-07T13:58:05.071Z,101255
2018-05-07T14:00:33.238Z,101253
2018-05-07T14:03:01.650Z,101250
2018-05-07T14:05:30.072Z,101244
2018-05-07T14:07:59.050Z,101248
2018-05-07T14:10:27.504Z,101228
2018-05-07T14:12:55.707Z,101244
2018-05-07T14:15:23.932Z,101236
2018-05-07T14:17:52.241Z,101230
2018-05-07T14:20:20.820Z,101230
2018-05-07T14:22:49.083Z,101228
2018-05-07T14:25:17.217Z,101227
2018-05-07T14:27:45.653Z,101224
2018-05-07T14:30:13.842Z,101221
2018-05-07T14:32:42.322Z,101220
2018-05-07T14:35:10.686Z,101217
2018-05-07T14:37:38.898Z,101216
2018-05-07T14:40:07.629Z,101218
2018-05-07T14:42:35.815Z,101214
2018-05-07T14:45:04.098Z,101211
2018-05-07T14:47:32.310Z,101201
2018-05-07T14:50:00.778Z,101217
2018-05-07T14:52:29.446Z,101192
2018-05-07T14:54:58.700Z,101216
2018-05-07T14:57:27.262Z,101207
2018-05-07T14:59:55.748Z,101201
2018-05-07T15:02:24.080Z,101210
2018-05-07T15:04:53.024Z,101200
2018-05-07T15:07:21.655Z,101195
2018-05-07T15:09:49.978Z,101186
2018-05-07T15:12:18.211Z,101190
2018-05-07T15:14:46.403Z,101187
2018-05-07T15:17:14.677Z,101185
2018-05-07T15:19:43.047Z,101175
2018-05-07T15:22:11.336Z,101184
2018-05-07T15:24:48.797Z,101174
2018-05-07T15:27:17.090Z,101172
2018-05-07T15:29:45.495Z,101168
2018-05-07T15:32:13.645Z,101164
2018-05-07T15:34:41.755Z,101173
2018-05-07T15:37:09.989Z,101171
2018-05-07T15:39:38.664Z,101164
2018-05-07T15:42:06.802Z,101175
2018-05-07T15:44:35.045Z,101172
2018-05-07T15:47:03.203Z,101178
2018-05-07T15:49:31.447Z,101180
2018-05-07T15:51:59.743Z,101179
2018-05-07T15:54:28.434Z,101169
2018-05-07T15:56:57.247Z,101164
2018-05-07T15:59:26.252Z,101169
2018-05-07T16:01:55.961Z,101174
2018-05-07T16:04:24.440Z,101175
2018-05-07T16:06:53.535Z,101161
2018-05-07T16:09:21.796Z,101167
2018-05-07T16:11:50.161Z,101167
2018-05-07T16:14:18.392Z,101164
2018-05-07T16:16:46.629Z,101156
2018-05-07T16:19:14.941Z,101152
2018-05-07T16:21:43.282Z,101149
2018-05-07T16:24:11.709Z,101152
2018-05-07T16:26:40.597Z,101145
2018-05-07T16:29:08.856Z,101153
2018-05-07T16:31:37.181Z,101145
2018-05-07T16:34:05.793Z,101150
2018-05-07T16:36:34.647Z,101143
2018-05-07T16:39:03.027Z,101140
2018-05-07T16:41:31.408Z,101133
2018-05-07T16:43:59.756Z,101132
2018-05-07T16:46:28.047Z,101137
2018-05-07T16:48:56.336Z,101129
2018-05-07T16:51:24.881Z,101144
2018-05-07T16:53:53.136Z,101136
2018-05-07T16:56:21.369Z,101132
2018-05-07T16:58:49.794Z,101128
2018-05-07T17:01:18.170Z,101128
2018-05-07T17:03:46.491Z,101132
2018-05-07T17:06:15.248Z,101126
2018-05-07T17:08:43.595Z,101123
2018-05-07T17:11:11.969Z,101126
2018-05-07T17:13:40.595Z,101118
2018-05-07T17:16:08.835Z,101122
2018-05-07T17:18:37.210Z,101127
2018-05-07T17:21:05.630Z,101121
2018-05-07T17:23:33.941Z,101114
2018-05-07T17:26:02.231Z,101115
2018-05-07T17:28:30.880Z,101114
2018-05-07T17:30:59.196Z,101112
2018-05-07T17:33:27.598Z,101118
2018-05-07T17:35:55.928Z,101105
2018-05-07T17:38:24.171Z,101113
2018-05-07T17:40:52.443Z,101101
2018-05-07T17:43:20.961Z,101110
2018-05-07T17:46:00.991Z,101114
2018-05-07T17:48:41.055Z,101109
2018-05-07T17:51:09.610Z,101113
2018-05-07T17:53:38.258Z,101111
2018-05-07T17:56:06.680Z,101110
2018-05-07T17:58:35.084Z,101111
2018-05-07T18:01:03.346Z,101115
2018-05-07T18:03:31.701Z,101109
2018-05-07T18:05:59.962Z,101112
2018-05-07T18:08:28.231Z,101109
2018-05-07T18:10:56.569Z,101108
2018-05-07T18:13:24.924Z,101109
2018-05-07T18:15:53.312Z,101109
2018-05-07T18:18:21.535Z,101091
2018-05-07T18:20:49.827Z,101101
2018-05-07T18:23:18.240Z,101096
2018-05-07T18:25:46.455Z,101100
2018-05-07T18:28:14.872Z,101090
2018-05-07T18:30:43.260Z,101091
2018-05-07T18:33:11.681Z,101086
2018-05-07T18:35:39.910Z,101093
2018-05-07T18:38:08.408Z,101089
2018-05-07T18:40:36.623Z,101090
2018-05-07T18:43:04.833Z,101089
2018-05-07T18:45:33.903Z,101089
2018-05-07T18:48:02.259Z,101094
2018-05-07T18:50:30.503Z,101101
2018-05-07T18:52:58.676Z,101101
2018-05-07T18:55:26.803Z,101091
2018-05-07T18:57:54.978Z,101107
2018-05-07T19:00:23.130Z,101104
2018-05-07T19:02:51.373Z,101089
2018-05-07T19:05:19.511Z,101099
2018-05-07T19:07:47.582Z,101087
2018-05-07T19:10:15.645Z,101093
2018-05-07T19:12:43.804Z,101095
2018-05-07T19:15:11.946Z,101083
2018-05-07T19:17:40.313Z,101086
2018-05-07T19:20:08.403Z,101088
2018-05-07T19:22:36.486Z,101086
2018-05-07T19:25:04.593Z,101088
2018-05-07T19:27:32.845Z,101092
2018-05-07T19:30:00.990Z,101092
2018-05-07T19:32:29.289Z,101088
2018-05-07T19:34:57.438Z,101095
2018-05-07T19:37:25.703Z,101089
2018-05-07T19:39:53.896Z,101104
2018-05-07T19:42:22.034Z,101095
2018-05-07T19:44:50.389Z,101092
2018-05-07T19:47:18.695Z,101084
2018-05-07T19:49:46.839Z,101088
2018-05-07T19:52:14.971Z,101083
2018-05-07T19:54:43.171Z,101079
2018-05-07T19:57:11.353Z,101077
2018-05-07T19:59:39.695Z,101083
2018-05-07T20:02:07.935Z,101091
2018-05-07T20:04:36.028Z,101079
2018-05-07T20:07:04.228Z,101081
2018-05-07T20:09:32.608Z,101072
2018-05-07T20:12:00.726Z,101085
2018-05-07T20:14:29.011Z,101083
2018-05-07T20:16:57.129Z,101078
2018-05-07T20:19:25.489Z,101077
2018-05-07T20:21:53.601Z,101078
2018-05-07T20:24:21.966Z,101082
2018-05-07T20:26:50.322Z,101086
2018-05-07T20:29:18.442Z,101075
2018-05-07T20:31:46.740Z,101078
2018-05-07T20:34:14.912Z,101077
2018-05-07T20:36:43.212Z,101076
2018-05-07T20:39:11.526Z,101075
2018-05-07T20:41:39.674Z,101075
2018-05-07T20:44:07.840Z,101071
2018-05-07T20:46:36.049Z,101074
2018-05-07T20:49:04.513Z,101079
2018-05-07T20:51:32.668Z,101073
2018-05-07T20:54:01.202Z,101075
2018-05-07T20:56:29.354Z,101068
2018-05-07T20:58:57.489Z,101070
2018-05-07T21:01:25.707Z,101068
2018-05-07T21:03:54.102Z,101073
2018-05-07T21:06:22.525Z,101069
2018-05-07T21:08:50.682Z,101064
2018-05-07T21:11:18.973Z,101068
2018-05-07T21:13:47.355Z,101064
2018-05-07T21:16:15.733Z,101058
2018-05-07T21:18:44.034Z,101063
2018-05-07T21:21:12.462Z,101061
2018-05-07T21:23:40.505Z,101056
2018-05-07T21:26:08.869Z,101055
2018-05-07T21:28:37.324Z,101052
2018-05-07T21:31:05.592Z,101054
2018-05-07T21:33:33.787Z,101058
2018-05-07T21:36:01.933Z,101060
2018-05-07T21:38:30.534Z,101058
2018-05-07T21:40:58.759Z,101055
2018-05-07T21:43:26.877Z,101059
2018-05-07T21:45:55.614Z,101060
2018-05-07T21:48:23.735Z,101057
2018-05-07T21:50:52.075Z,101055
2018-05-07T21:53:20.509Z,101053
2018-05-07T21:55:48.824Z,101047
2018-05-07T21:58:17.174Z,101054
2018-05-07T22:00:45.364Z,101051
2018-05-07T22:03:13.698Z,101046
2018-05-07T22:05:41.931Z,101051
2018-05-07T22:08:10.073Z,101046
2018-05-07T22:10:38.246Z,101041
2018-05-07T22:13:06.555Z,101045
2018-05-07T22:15:34.662Z,101045
2018-05-07T22:18:02.984Z,101045
2018-05-07T22:20:31.349Z,101055
2018-05-07T22:22:59.685Z,101036
2018-05-07T22:25:27.812Z,101034
2018-05-07T22:27:55.925Z,101032
2018-05-07T22:30:24.270Z,101031
2018-05-07T22:32:52.567Z,101037
2018-05-07T22:35:20.878Z,101020
2018-05-07T22:37:49.090Z,101030
2018-05-07T22:40:17.167Z,101029
2018-05-07T22:42:45.888Z,101030
2018-05-07T22:45:14.001Z,101026
2018-05-07T22:47:42.356Z,101029
2018-05-07T22:50:10.437Z,101020
2018-05-07T22:52:38.715Z,101021
2018-05-07T22:55:24.089Z,101018
2018-05-07T22:57:52.241Z,101029
2018-05-07T23:00:20.478Z,101028
2018-05-07T23:02:48.822Z,101018
2018-05-07T23:05:17.239Z,101010
2018-05-07T23:07:45.583Z,101019
2018-05-07T23:10:13.691Z,101024
2018-05-07T23:12:42.068Z,101013
2018-05-07T23:15:10.188Z,101017
2018-05-07T23:17:38.504Z,101017
2018-05-07T23:20:06.934Z,101018
2018-05-07T23:22:35.307Z,101023
2018-05-07T23:25:03.568Z,101017
2018-05-07T23:27:32.305Z,101020
2018-05-07T23:30:00.915Z,101014
2018-05-07T23:32:29.127Z,101018
2018-05-07T23:34:57.209Z,101021
2018-05-07T23:37:25.571Z,101021
2018-05-07T23:39:53.946Z,101003
2018-05-07T23:42:22.064Z,101000
2018-05-07T23:44:50.269Z,101001
2018-05-07T23:47:18.473Z,101002
2018-05-07T23:49:46.815Z,101003
2018-05-07T23:52:15.233Z,101009
2018-05-07T23:54:43.345Z,101009
2018-05-07T23:57:11.493Z,101005
2018-05-07T23:59:39.658Z,101010
